createdAt,value
2018-10-12T04:30:12.235Z,21.87
2018-10-12T04:32:41.321Z,22.03
2018-10-12T04:35:10.425Z,23.00
2018-10-12T04:37:39.621Z,22.17
2018-10-12T04:40:33.302Z,23.60
2018-10-12T04:43:02.473Z,22.47
2018-10-12T04:45:31.629Z,24.27
2018-10-12T04:48:00.760Z,23.90
2018-10-12T04:50:29.861Z,24.00
2018-10-12T04:52:59.029Z,24.27
2018-10-12T04:55:28.142Z,22.63
2018-10-12T04:57:57.275Z,23.83
2018-10-12T05:00:26.373Z,24.70
2018-10-12T05:02:55.522Z,23.63
2018-10-12T05:05:24.632Z,24.03
2018-10-12T05:07:53.831Z,24.63
2018-10-12T05:10:22.832Z,23.90
2018-10-12T05:12:51.938Z,26.37
2018-10-12T05:15:21.160Z,25.17
2018-10-12T05:17:50.286Z,26.77
2018-10-12T05:20:19.405Z,28.10
2018-10-12T05:22:48.515Z,27.73
2018-10-12T05:25:17.656Z,28.33
2018-10-12T05:27:46.855Z,28.27
2018-10-12T05:30:16.004Z,28.67
2018-10-12T05:32:45.308Z,27.70
2018-10-12T05:35:14.406Z,26.40
2018-10-12T05:37:43.963Z,26.57
2018-10-12T05:40:13.058Z,26.37
2018-10-12T05:42:42.216Z,25.03
2018-10-12T05:45:11.307Z,23.83
2018-10-12T05:47:40.465Z,23.90
2018-10-12T05:50:10.586Z,24.73
2018-10-12T05:52:40.905Z,24.07
2018-10-12T05:55:10.044Z,26.30
2018-10-12T05:57:40.977Z,25.30
2018-10-12T06:00:10.852Z,27.77
2018-10-12T06:02:39.998Z,27.23
2018-10-12T06:05:09.278Z,27.50
2018-10-12T06:07:38.368Z,27.77
2018-10-12T06:10:07.672Z,25.53
2018-10-12T06:12:36.641Z,26.40
2018-10-12T06:15:05.771Z,26.30
2018-10-12T06:17:34.833Z,26.00
2018-10-12T06:20:03.973Z,24.50
2018-10-12T06:22:33.042Z,25.83
2018-10-12T06:25:02.135Z,27.00
2018-10-12T06:27:31.234Z,26.80
2018-10-12T06:30:00.353Z,27.90
2018-10-12T06:32:29.434Z,26.67
2018-10-12T06:34:58.551Z,26.00
2018-10-12T06:37:27.652Z,25.93
2018-10-12T06:39:56.811Z,25.17
2018-10-12T06:42:25.939Z,24.83
2018-10-12T06:44:55.193Z,25.67
2018-10-12T06:47:24.280Z,24.50
2018-10-12T06:49:53.411Z,26.03
2018-10-12T06:52:22.489Z,26.73
2018-10-12T06:54:51.607Z,25.20
2018-10-12T06:57:20.701Z,26.87
2018-10-12T06:59:49.851Z,25.83
2018-10-12T07:02:20.333Z,27.80
2018-10-12T07:04:50.361Z,27.10
2018-10-12T07:07:19.509Z,27.53
2018-10-12T07:09:48.659Z,26.43
2018-10-12T07:12:17.785Z,26.70
2018-10-12T07:14:46.978Z,25.27
2018-10-12T07:17:16.077Z,27.97
2018-10-12T07:19:45.202Z,28.67
2018-10-12T07:22:14.392Z,27.77
2018-10-12T07:24:43.585Z,29.33
2018-10-12T07:27:12.726Z,28.70
2018-10-12T07:29:43.787Z,27.60
2018-10-12T07:32:13.235Z,27.63
2018-10-12T07:34:42.356Z,28.27
2018-10-12T07:37:12.302Z,27.77
2018-10-12T07:39:41.654Z,27.53
2018-10-12T07:42:10.801Z,26.90
2018-10-12T07:44:41.064Z,26.70
2018-10-12T07:47:10.353Z,25.73
2018-10-12T07:49:40.711Z,27.73
2018-10-12T07:52:10.132Z,27.67
2018-10-12T07:54:41.081Z,26.70
2018-10-12T07:57:18.069Z,30.73
2018-10-12T07:59:47.394Z,30.13
2018-10-12T08:02:16.910Z,30.40
2018-10-12T08:04:46.235Z,30.57
2018-10-12T08:07:15.761Z,34.80
2018-10-12T08:09:45.017Z,33.13
2018-10-12T08:12:14.324Z,33.10
2018-10-12T08:14:44.399Z,32.00
2018-10-12T08:17:13.603Z,31.70
2018-10-12T08:19:42.926Z,33.13
2018-10-12T08:22:14.144Z,31.90
2018-10-12T08:24:45.534Z,32.33
2018-10-12T08:27:14.807Z,32.83
2018-10-12T08:29:43.941Z,32.47
2018-10-12T08:32:13.173Z,38.53
2018-10-12T08:34:43.712Z,35.87
2018-10-12T08:37:15.461Z,35.50
2018-10-12T08:39:45.406Z,34.80
2018-10-12T08:42:17.847Z,35.70
2018-10-12T08:44:48.205Z,35.87
2018-10-12T08:47:20.913Z,36.47
2018-10-12T08:49:50.577Z,33.97
2018-10-12T08:52:19.812Z,35.43
2018-10-12T08:54:48.914Z,33.23
2018-10-12T08:57:18.001Z,33.47
2018-10-12T08:59:47.207Z,30.63
2018-10-12T09:02:16.298Z,30.63
2018-10-12T09:04:45.401Z,29.93
2018-10-12T09:07:14.509Z,28.10
2018-10-12T09:09:43.626Z,28.97
2018-10-12T09:12:12.739Z,27.30
2018-10-12T09:14:41.847Z,26.70
2018-10-12T09:17:10.976Z,24.80
2018-10-12T09:19:40.077Z,22.33
2018-10-12T09:22:09.162Z,25.10
2018-10-12T09:24:38.320Z,23.63
2018-10-12T09:27:07.460Z,22.70
2018-10-12T09:29:36.610Z,22.27
2018-10-12T09:32:05.718Z,24.33
2018-10-12T09:34:34.830Z,23.87
2018-10-12T09:37:03.991Z,25.67
2018-10-12T09:39:33.032Z,26.03
2018-10-12T09:42:02.161Z,27.07
2018-10-12T09:44:31.258Z,29.03
2018-10-12T09:47:00.342Z,29.90
2018-10-12T09:49:29.485Z,28.20
2018-10-12T09:51:58.563Z,27.48
2018-10-12T09:54:27.675Z,27.53
2018-10-12T09:57:03.019Z,28.20
2018-10-12T09:59:32.691Z,26.95
2018-10-12T10:02:07.262Z,26.67
2018-10-12T10:04:36.930Z,25.55
2018-10-12T10:07:06.279Z,25.37
2018-10-12T10:09:37.542Z,25.80
2018-10-12T10:12:06.794Z,24.27
2018-10-12T10:14:35.939Z,25.57
2018-10-12T10:17:06.210Z,25.27
2018-10-12T10:19:35.924Z,25.80
2018-10-12T10:22:06.075Z,27.05
2018-10-12T10:24:35.788Z,25.97
2018-10-12T10:27:05.224Z,27.02
2018-10-12T10:29:36.022Z,26.60
2018-10-12T10:32:05.389Z,25.65
2018-10-12T10:34:34.685Z,24.25
2018-10-12T10:37:03.988Z,24.47
2018-10-12T10:39:33.078Z,22.48
2018-10-12T10:42:03.753Z,22.93
2018-10-12T10:44:33.122Z,22.45
2018-10-12T10:47:02.206Z,21.02
2018-10-12T10:49:33.548Z,20.72
2018-10-12T10:52:02.870Z,20.52
2018-10-12T10:54:31.973Z,19.15
2018-10-12T10:57:05.432Z,17.95
2018-10-12T10:59:35.885Z,18.85
2018-10-12T11:02:05.848Z,19.32
2018-10-12T11:04:35.179Z,19.80
2018-10-12T11:07:04.391Z,18.55
2018-10-12T11:09:33.533Z,16.73
2018-10-12T11:12:02.742Z,15.78
2018-10-12T11:14:31.853Z,16.23
2018-10-12T11:17:00.955Z,14.80
2018-10-12T11:19:30.082Z,15.20
2018-10-12T11:21:59.239Z,14.25
2018-10-12T11:24:28.323Z,13.48
2018-10-12T11:26:57.548Z,13.72
2018-10-12T11:29:26.750Z,14.07
2018-10-12T11:31:58.874Z,13.95
2018-10-12T11:34:32.315Z,13.40
2018-10-12T11:37:12.658Z,12.90
2018-10-12T11:39:43.344Z,12.88
2018-10-12T11:42:12.573Z,12.55
2018-10-12T11:44:41.813Z,12.03
2018-10-12T11:47:18.005Z,12.40
2018-10-12T11:49:47.164Z,10.98
2018-10-12T11:52:16.770Z,11.08
2018-10-12T11:54:48.271Z,11.25
2018-10-12T11:57:19.583Z,11.03
2018-10-12T11:59:52.813Z,11.35
2018-10-12T12:02:23.384Z,10.43
2018-10-12T12:04:54.862Z,10.58
2018-10-12T12:07:27.662Z,11.10
2018-10-12T12:09:57.672Z,11.45
2018-10-12T12:12:30.335Z,10.20
2018-10-12T12:15:02.692Z,10.80
2018-10-12T12:17:32.319Z,9.48
2018-10-12T12:20:02.705Z,10.08
2018-10-12T12:22:32.647Z,10.15
2018-10-12T12:25:03.257Z,10.60
2018-10-12T12:27:32.782Z,10.05
2018-10-12T12:30:03.654Z,10.38
2018-10-12T12:32:34.872Z,10.23
2018-10-12T12:35:04.643Z,9.30
2018-10-12T12:37:33.621Z,9.63
2018-10-12T12:40:02.770Z,9.80
2018-10-12T12:42:31.857Z,9.38
2018-10-12T12:45:00.993Z,9.20
2018-10-12T12:47:30.204Z,8.90
2018-10-12T12:49:59.221Z,8.90
2018-10-12T12:52:28.293Z,8.98
2018-10-12T12:54:57.390Z,8.90
2018-10-12T12:57:27.413Z,8.75
2018-10-12T12:59:57.074Z,8.90
2018-10-12T13:02:26.173Z,8.10
2018-10-12T13:04:55.264Z,8.55
2018-10-12T13:07:25.626Z,8.00
2018-10-12T13:09:55.599Z,7.72
2018-10-12T13:12:24.665Z,7.37
2018-10-12T13:14:53.742Z,6.83
2018-10-12T13:17:22.809Z,6.67
2018-10-12T13:19:51.918Z,6.37
2018-10-12T13:22:20.965Z,5.90
2018-10-12T13:24:50.062Z,6.10
2018-10-12T13:27:19.148Z,5.58
2018-10-12T13:29:48.230Z,5.53
2018-10-12T13:32:17.288Z,5.55
2018-10-12T13:34:46.360Z,5.20
2018-10-12T13:37:15.422Z,5.05
2018-10-12T13:39:44.535Z,5.10
2018-10-12T13:42:13.616Z,4.92
2018-10-12T13:44:42.705Z,4.92
2018-10-12T13:47:11.765Z,4.15
2018-10-12T13:49:40.910Z,4.37
2018-10-12T13:52:09.982Z,4.37
2018-10-12T13:54:39.053Z,4.17
2018-10-12T13:57:08.148Z,3.60
2018-10-12T13:59:37.218Z,3.98
2018-10-12T14:02:06.618Z,3.77
2018-10-12T14:04:35.689Z,3.83
2018-10-12T14:07:04.793Z,4.08
2018-10-12T14:09:33.864Z,3.52
2018-10-12T14:12:02.956Z,3.52
2018-10-12T14:14:32.119Z,3.90
2018-10-12T14:17:01.215Z,3.90
2018-10-12T14:19:30.292Z,4.05
2018-10-12T14:21:59.376Z,3.90
2018-10-12T14:24:28.464Z,4.00
2018-10-12T14:26:57.553Z,4.42
2018-10-12T14:29:26.917Z,3.77
2018-10-12T14:31:56.141Z,4.03
2018-10-12T14:34:25.286Z,3.85
2018-10-12T14:36:54.458Z,3.90
2018-10-12T14:39:23.579Z,4.25
2018-10-12T14:41:52.701Z,4.12
2018-10-12T14:44:21.921Z,3.95
2018-10-12T14:46:50.953Z,4.03
2018-10-12T14:49:20.023Z,4.20
2018-10-12T14:51:49.249Z,3.55
2018-10-12T14:54:19.137Z,3.87
2018-10-12T14:56:48.244Z,3.80
2018-10-12T14:59:17.328Z,3.80
2018-10-12T15:01:46.428Z,3.80
2018-10-12T15:04:15.522Z,4.03
2018-10-12T15:06:44.601Z,4.00
2018-10-12T15:09:14.502Z,3.70
2018-10-12T15:11:43.603Z,4.00
2018-10-12T15:14:14.926Z,3.55
2018-10-12T15:16:51.028Z,4.08
2018-10-12T15:19:26.056Z,3.72
2018-10-12T15:21:55.779Z,3.72
2018-10-12T15:24:33.065Z,3.47
2018-10-12T15:27:04.823Z,3.50
2018-10-12T15:29:33.940Z,3.50
2018-10-12T15:32:06.774Z,3.30
2018-10-12T15:34:37.843Z,3.70
2018-10-12T15:37:07.844Z,3.60
2018-10-12T15:39:39.862Z,3.80
2018-10-12T15:42:12.308Z,3.60
2018-10-12T15:44:43.972Z,5.12
2018-10-12T15:47:14.803Z,4.05
2018-10-12T15:49:44.030Z,3.55
2018-10-12T15:52:15.766Z,3.50
2018-10-12T15:54:45.649Z,3.70
2018-10-12T15:57:19.820Z,3.42
2018-10-12T15:59:50.178Z,3.33
2018-10-12T16:02:19.728Z,3.52
2018-10-12T16:04:48.925Z,3.80
2018-10-12T16:07:18.970Z,3.47
2018-10-12T16:09:49.949Z,3.40
2018-10-12T16:12:20.876Z,3.58
2018-10-12T16:14:51.378Z,3.37
2018-10-12T16:17:21.040Z,3.47
2018-10-12T16:19:51.572Z,3.75
2018-10-12T16:22:20.844Z,3.37
2018-10-12T16:25:01.303Z,3.92
2018-10-12T16:27:31.567Z,4.15
2018-10-12T16:30:00.709Z,3.72
2018-10-12T16:32:30.646Z,4.20
2018-10-12T16:34:59.828Z,3.95
2018-10-12T16:37:29.237Z,3.83
2018-10-12T16:39:59.323Z,5.08
2018-10-12T16:42:28.454Z,7.30
2018-10-12T16:44:57.882Z,8.38
2018-10-12T16:47:26.993Z,9.15
2018-10-12T16:49:56.093Z,8.68
2018-10-12T16:52:25.206Z,7.90
2018-10-12T16:54:54.272Z,8.35
2018-10-12T16:57:30.582Z,7.78
2018-10-12T16:59:59.757Z,5.85
2018-10-12T17:02:28.873Z,5.22
2018-10-12T17:04:59.628Z,4.72
2018-10-12T17:07:28.966Z,4.58
2018-10-12T17:09:58.797Z,4.42
2018-10-12T17:12:28.167Z,4.30
2018-10-12T17:14:57.544Z,4.17
2018-10-12T17:17:26.729Z,4.30
2018-10-12T17:19:57.332Z,4.20
2018-10-12T17:22:27.111Z,4.40
2018-10-12T17:24:56.867Z,4.30
2018-10-12T17:27:26.423Z,4.60
2018-10-12T17:29:57.014Z,5.70
2018-10-12T17:32:26.271Z,5.90
2018-10-12T17:34:55.509Z,5.95
2018-10-12T17:37:25.484Z,6.50
2018-10-12T17:39:54.736Z,7.00
2018-10-12T17:42:24.036Z,6.70
2018-10-12T17:44:53.923Z,7.15
2018-10-12T17:47:23.168Z,7.00
2018-10-12T17:49:53.677Z,6.80
2018-10-12T17:52:23.493Z,6.70
2018-10-12T17:54:53.139Z,6.08
2018-10-12T17:57:24.730Z,10.55
2018-10-12T17:59:55.224Z,9.88
2018-10-12T18:02:24.970Z,13.18
2018-10-12T18:04:56.700Z,10.72
2018-10-12T18:07:27.400Z,7.17
2018-10-12T18:09:57.964Z,6.50
2018-10-12T18:12:29.127Z,6.35
2018-10-12T18:14:58.924Z,6.15
2018-10-12T18:17:28.949Z,6.17
2018-10-12T18:19:58.124Z,6.55
2018-10-12T18:22:27.894Z,6.60
2018-10-12T18:24:57.784Z,7.10
2018-10-12T18:27:28.071Z,6.45
2018-10-12T18:29:57.449Z,6.08
2018-10-12T18:32:27.198Z,6.67
2018-10-12T18:34:56.401Z,6.45
2018-10-12T18:37:25.638Z,9.30
2018-10-12T18:39:55.500Z,15.40
2018-10-12T18:42:24.742Z,16.55
2018-10-12T18:44:53.854Z,16.55
2018-10-12T18:47:24.986Z,13.38
2018-10-12T18:49:54.741Z,11.45
2018-10-12T18:52:24.026Z,7.37
2018-10-12T18:54:53.166Z,8.43
2018-10-12T18:57:22.889Z,7.60
2018-10-12T18:59:52.626Z,7.53
2018-10-12T19:02:22.795Z,7.12
2018-10-12T19:04:52.641Z,6.83
2018-10-12T19:07:21.911Z,7.10
2018-10-12T19:09:51.548Z,7.12
2018-10-12T19:12:21.320Z,7.00
2018-10-12T19:14:50.567Z,7.42
2018-10-12T19:17:20.251Z,7.37
2018-10-12T19:19:49.423Z,7.65
2018-10-12T19:22:19.038Z,8.18
2018-10-12T19:24:49.812Z,8.38
2018-10-12T19:27:19.480Z,7.47
2018-10-12T19:29:49.022Z,8.28
2018-10-12T19:32:21.612Z,8.50
2018-10-12T19:34:51.085Z,8.25
2018-10-12T19:37:20.860Z,8.25
2018-10-12T19:39:50.791Z,8.90
2018-10-12T19:42:20.049Z,8.50
2018-10-12T19:44:49.163Z,8.75
2018-10-12T19:47:18.254Z,8.80
2018-10-12T19:49:47.362Z,10.07
2018-10-12T19:52:16.439Z,9.30
2018-10-12T19:54:45.576Z,9.48
2018-10-12T19:57:14.718Z,9.57
2018-10-12T19:59:43.832Z,10.70
2018-10-12T20:02:12.935Z,11.10
2018-10-12T20:04:42.041Z,12.03
2018-10-12T20:07:11.173Z,12.23
2018-10-12T20:09:40.358Z,12.83
2018-10-12T20:12:09.461Z,10.60
2018-10-12T20:14:38.594Z,10.23
2018-10-12T20:17:07.772Z,11.17
2018-10-12T20:19:37.062Z,10.53
2018-10-12T20:22:08.759Z,9.30
2018-10-12T20:24:38.224Z,9.63
2018-10-12T20:27:07.693Z,9.33
2018-10-12T20:29:36.904Z,9.43
2018-10-12T20:32:06.279Z,8.33
2018-10-12T20:34:35.462Z,9.07
2018-10-12T20:37:05.105Z,8.13
2018-10-12T20:39:34.947Z,9.17
2018-10-12T20:42:04.068Z,10.33
2018-10-12T20:44:33.241Z,10.63
2018-10-12T20:47:02.398Z,10.13
2018-10-12T20:49:31.666Z,10.13
2018-10-12T20:52:00.785Z,10.73
2018-10-12T20:54:29.885Z,10.37
2018-10-12T20:56:59.005Z,9.80
2018-10-12T20:59:28.194Z,9.37
2018-10-12T21:01:57.297Z,8.93
2018-10-12T21:04:26.426Z,8.90
2018-10-12T21:06:55.514Z,8.40
2018-10-12T21:09:24.639Z,8.67
2018-10-12T21:11:53.741Z,8.10
2018-10-12T21:14:22.865Z,7.97
2018-10-12T21:16:52.023Z,8.03
2018-10-12T21:19:21.113Z,8.40
2018-10-12T21:21:50.202Z,7.43
2018-10-12T21:24:19.322Z,9.27
2018-10-12T21:26:48.409Z,11.70
2018-10-12T21:29:17.501Z,11.37
2018-10-12T21:31:46.601Z,11.90
2018-10-12T21:34:15.781Z,14.30
2018-10-12T21:36:44.930Z,13.53
2018-10-12T21:39:14.227Z,12.63
2018-10-12T21:41:43.341Z,11.77
2018-10-12T21:44:12.503Z,12.70
2018-10-12T21:46:41.669Z,23.10
2018-10-12T21:49:10.742Z,24.30
2018-10-12T21:51:39.829Z,16.47
2018-10-12T21:54:09.370Z,16.40
2018-10-12T21:56:38.478Z,13.57
2018-10-12T21:59:07.593Z,12.80
2018-10-12T22:01:36.723Z,13.20
2018-10-12T22:04:05.879Z,11.30
2018-10-12T22:06:35.114Z,10.40
2018-10-12T22:09:06.566Z,9.43
2018-10-12T22:11:35.693Z,8.20
2018-10-12T22:14:05.076Z,9.70
2018-10-12T22:16:34.131Z,10.27
2018-10-12T22:19:03.283Z,9.93
2018-10-12T22:21:32.374Z,8.10
2018-10-12T22:24:01.476Z,7.13
2018-10-12T22:26:30.608Z,7.83
2018-10-12T22:28:59.714Z,7.50
2018-10-12T22:31:28.860Z,7.50
2018-10-12T22:33:57.973Z,7.43
2018-10-12T22:36:27.094Z,7.10
2018-10-12T22:38:56.156Z,7.23
2018-10-12T22:41:25.232Z,7.00
2018-10-12T22:43:54.307Z,7.00
2018-10-12T22:46:23.414Z,6.57
2018-10-12T22:48:52.546Z,6.90
2018-10-12T22:51:21.693Z,7.27
2018-10-12T22:53:50.779Z,7.10
2018-10-12T22:56:19.911Z,7.13
2018-10-12T22:58:49.015Z,7.40
2018-10-12T23:01:18.163Z,7.33
2018-10-12T23:03:47.257Z,7.17
2018-10-12T23:06:16.373Z,7.60
2018-10-12T23:08:45.512Z,7.27
2018-10-12T23:11:14.664Z,6.87
2018-10-12T23:13:43.779Z,7.13
2018-10-12T23:16:12.911Z,6.57
2018-10-12T23:18:42.107Z,6.63
2018-10-12T23:21:11.159Z,6.50
2018-10-12T23:23:40.242Z,6.47
2018-10-12T23:26:09.353Z,6.30
2018-10-12T23:28:38.430Z,6.47
2018-10-12T23:31:08.023Z,6.73
2018-10-12T23:33:48.635Z,6.63
2018-10-12T23:36:17.740Z,7.03
2018-10-12T23:38:46.810Z,6.73
2018-10-12T23:41:15.925Z,6.40
2018-10-12T23:43:45.052Z,6.70
2018-10-12T23:46:14.186Z,6.40
2018-10-12T23:48:43.266Z,5.90
2018-10-12T23:51:12.370Z,6.70
2018-10-12T23:53:41.473Z,6.50
2018-10-12T23:56:10.612Z,6.23
2018-10-12T23:58:39.735Z,6.67
